createdAt,value
2018-10-03T00:00:52.566Z,19.30
2018-10-03T00:01:52.578Z,18.10
2018-10-03T00:02:52.594Z,23.50
2018-10-03T00:03:52.603Z,23.30
2018-10-03T00:04:52.621Z,16.60
2018-10-03T00:05:52.632Z,19.20
2018-10-03T00:06:52.642Z,17.70
2018-10-03T00:07:52.657Z,19.50
2018-10-03T00:08:52.673Z,21.70
2018-10-03T00:09:52.685Z,22.20
2018-10-03T00:10:52.700Z,19.00
2018-10-03T00:11:52.712Z,18.20
2018-10-03T00:13:52.839Z,20.40
2018-10-03T00:15:52.810Z,19.10
2018-10-03T00:16:52.784Z,21.70
2018-10-03T00:17:52.791Z,20.00
2018-10-03T00:18:52.802Z,18.50
2018-10-03T00:19:52.817Z,20.60
2018-10-03T00:20:52.831Z,18.20
2018-10-03T00:21:52.841Z,20.40
2018-10-03T00:22:52.857Z,16.50
2018-10-03T00:23:52.869Z,29.10
2018-10-03T00:24:52.880Z,19.30
2018-10-03T00:25:52.899Z,23.80
2018-10-03T00:26:52.908Z,20.30
2018-10-03T00:27:52.924Z,20.00
2018-10-03T00:28:52.934Z,18.90
2018-10-03T00:29:52.944Z,20.40
2018-10-03T00:30:52.959Z,23.00
2018-10-03T00:31:52.974Z,21.10
2018-10-03T00:32:52.986Z,21.50
2018-10-03T00:33:53.000Z,21.40
2018-10-03T00:34:53.028Z,20.60
2018-10-03T00:35:53.027Z,21.80
2018-10-03T00:36:53.037Z,23.60
2018-10-03T00:37:53.049Z,21.30
2018-10-03T00:38:53.064Z,18.40
2018-10-03T00:39:53.088Z,18.80
2018-10-03T00:40:53.090Z,18.20
2018-10-03T00:41:53.103Z,20.40
2018-10-03T00:42:53.117Z,28.30
2018-10-03T00:43:53.131Z,18.80
2018-10-03T00:44:53.142Z,18.00
2018-10-03T00:45:53.176Z,19.70
2018-10-03T00:48:53.802Z,20.30
2018-10-03T00:49:53.210Z,18.30
2018-10-03T00:50:53.228Z,15.40
2018-10-03T00:51:53.238Z,17.20
2018-10-03T00:52:53.247Z,18.20
2018-10-03T00:53:53.261Z,20.50
2018-10-03T00:54:53.278Z,21.90
2018-10-03T00:55:53.291Z,17.90
2018-10-03T00:56:53.298Z,18.90
2018-10-03T00:57:53.314Z,22.10
2018-10-03T00:58:53.329Z,22.50
2018-10-03T00:59:53.347Z,20.10
2018-10-03T01:00:53.374Z,20.80
2018-10-03T01:01:53.369Z,18.60
2018-10-03T01:02:53.386Z,21.40
2018-10-03T01:03:53.395Z,22.30
2018-10-03T01:04:53.413Z,24.40
2018-10-03T01:05:53.421Z,18.10
2018-10-03T01:06:53.436Z,18.50
2018-10-03T01:07:53.451Z,16.10
2018-10-03T01:08:53.467Z,17.70
2018-10-03T01:09:53.478Z,17.60
2018-10-03T01:10:53.485Z,21.50
2018-10-03T01:11:53.500Z,21.00
2018-10-03T01:12:53.514Z,21.60
2018-10-03T01:13:53.526Z,22.00
2018-10-03T01:14:53.542Z,19.50
2018-10-03T01:15:53.555Z,15.60
2018-10-03T01:16:53.571Z,13.70
2018-10-03T01:17:53.579Z,21.10
2018-10-03T01:18:53.745Z,18.10
2018-10-03T01:19:53.805Z,18.50
2018-10-03T01:21:53.791Z,21.90
2018-10-03T01:22:54.077Z,22.00
2018-10-03T01:23:53.659Z,19.00
2018-10-03T01:24:53.673Z,16.60
2018-10-03T01:25:53.686Z,15.40
2018-10-03T01:26:53.701Z,19.20
2018-10-03T01:27:53.716Z,17.50
2018-10-03T01:28:53.731Z,17.90
2018-10-03T01:29:53.741Z,19.60
2018-10-03T01:30:53.856Z,22.80
2018-10-03T01:31:53.772Z,21.60
2018-10-03T01:32:53.779Z,15.70
2018-10-03T01:33:53.794Z,17.60
2018-10-03T01:34:53.805Z,19.00
2018-10-03T01:35:53.818Z,17.40
2018-10-03T01:36:53.831Z,17.30
2018-10-03T01:37:53.847Z,21.10
2018-10-03T01:38:53.860Z,19.10
2018-10-03T01:39:53.873Z,17.90
2018-10-03T01:40:53.885Z,15.50
2018-10-03T01:41:53.936Z,15.90
2018-10-03T01:42:53.914Z,20.60
2018-10-03T01:43:53.927Z,17.30
2018-10-03T01:44:53.939Z,19.00
2018-10-03T01:45:53.955Z,17.10
2018-10-03T01:46:53.963Z,18.40
2018-10-03T01:47:53.978Z,19.80
2018-10-03T01:48:53.991Z,18.90
2018-10-03T01:49:54.005Z,17.10
2018-10-03T01:50:54.022Z,17.20
2018-10-03T01:51:54.030Z,21.40
2018-10-03T01:52:54.149Z,16.50
2018-10-03T01:53:54.123Z,17.40
2018-10-03T01:55:54.353Z,19.50
2018-10-03T01:56:54.102Z,16.90
2018-10-03T01:57:54.114Z,20.20
2018-10-03T01:58:54.129Z,19.50
2018-10-03T01:59:54.138Z,16.30
2018-10-03T02:00:54.153Z,19.00
2018-10-03T02:01:54.164Z,19.40
2018-10-03T02:02:54.182Z,15.00
2018-10-03T02:03:54.201Z,20.40
2018-10-03T02:04:54.209Z,17.20
2018-10-03T02:05:54.228Z,25.90
2018-10-03T02:06:54.264Z,21.70
2018-10-03T02:07:54.246Z,18.50
2018-10-03T02:08:54.259Z,19.80
2018-10-03T02:09:54.272Z,16.90
2018-10-03T02:10:54.288Z,18.70
2018-10-03T02:11:54.300Z,21.90
2018-10-03T02:12:54.311Z,19.40
2018-10-03T02:13:54.325Z,19.70
2018-10-03T02:14:54.347Z,18.40
2018-10-03T02:15:54.353Z,18.80
2018-10-03T02:16:54.372Z,20.90
2018-10-03T02:17:54.388Z,17.00
2018-10-03T02:18:54.399Z,20.10
2018-10-03T02:19:54.406Z,19.50
2018-10-03T02:20:54.419Z,20.90
2018-10-03T02:21:54.434Z,20.00
2018-10-03T02:22:54.449Z,20.60
2018-10-03T02:23:54.566Z,17.70
2018-10-03T02:25:55.168Z,20.90
2018-10-03T02:26:54.506Z,19.50
2018-10-03T02:27:54.516Z,19.00
2018-10-03T02:28:54.528Z,16.20
2018-10-03T02:29:54.544Z,23.00
2018-10-03T02:30:54.557Z,19.50
2018-10-03T02:31:54.647Z,20.40
2018-10-03T02:32:55.138Z,17.90
2018-10-03T02:33:55.181Z,22.10
2018-10-03T02:34:54.638Z,17.70
2018-10-03T02:35:54.634Z,21.60
2018-10-03T02:36:54.633Z,18.20
2018-10-03T02:37:54.647Z,20.10
2018-10-03T02:38:54.664Z,18.60
2018-10-03T02:39:54.674Z,18.50
2018-10-03T02:40:54.945Z,22.50
2018-10-03T02:41:54.703Z,18.20
2018-10-03T02:42:54.715Z,18.90
2018-10-03T02:43:54.732Z,15.30
2018-10-03T02:44:54.739Z,22.10
2018-10-03T02:45:54.756Z,21.30
2018-10-03T02:46:54.766Z,18.60
2018-10-03T02:47:54.805Z,20.10
2018-10-03T02:48:54.803Z,22.00
2018-10-03T02:49:54.817Z,18.90
2018-10-03T02:50:54.820Z,19.40
2018-10-03T02:51:54.838Z,19.40
2018-10-03T02:52:54.846Z,20.70
2018-10-03T02:53:54.860Z,20.60
2018-10-03T02:54:54.877Z,20.30
2018-10-03T02:55:54.892Z,20.40
2018-10-03T02:58:55.112Z,21.10
2018-10-03T02:59:55.009Z,28.20
2018-10-03T03:00:54.970Z,20.60
2018-10-03T03:01:55.032Z,22.60
2018-10-03T03:02:55.034Z,20.90
2018-10-03T03:03:54.995Z,18.40
2018-10-03T03:04:55.009Z,18.10
2018-10-03T03:05:55.021Z,21.90
2018-10-03T03:06:55.042Z,22.80
2018-10-03T03:07:55.051Z,18.20
2018-10-03T03:08:55.112Z,24.60
2018-10-03T03:09:55.074Z,17.40
2018-10-03T03:10:55.091Z,18.90
2018-10-03T03:11:55.105Z,22.00
2018-10-03T03:12:55.128Z,21.20
2018-10-03T03:13:55.126Z,25.20
2018-10-03T03:14:55.139Z,19.20
2018-10-03T03:15:55.221Z,17.60
2018-10-03T03:16:55.318Z,17.80
2018-10-03T03:17:55.174Z,20.90
2018-10-03T03:18:55.395Z,20.40
2018-10-03T03:19:55.742Z,22.10
2018-10-03T03:20:55.217Z,22.60
2018-10-03T03:21:55.229Z,18.90
2018-10-03T03:22:55.245Z,21.40
2018-10-03T03:23:55.256Z,20.90
2018-10-03T03:24:55.266Z,22.90
2018-10-03T03:25:55.280Z,18.50
2018-10-03T03:26:55.294Z,22.80
2018-10-03T03:27:55.314Z,20.90
2018-10-03T03:28:55.321Z,22.50
2018-10-03T03:29:55.334Z,19.50
2018-10-03T03:30:55.350Z,20.80
2018-10-03T03:32:55.379Z,21.50
2018-10-03T03:33:55.387Z,23.20
2018-10-03T03:34:55.405Z,18.40
2018-10-03T03:35:55.416Z,21.40
2018-10-03T03:36:55.431Z,21.90
2018-10-03T03:37:55.446Z,22.40
2018-10-03T03:38:55.458Z,22.30
2018-10-03T03:39:55.469Z,17.20
2018-10-03T03:40:55.492Z,22.00
2018-10-03T03:41:55.497Z,20.80
2018-10-03T03:42:55.511Z,17.80
2018-10-03T03:43:55.529Z,26.10
2018-10-03T03:44:55.537Z,23.70
2018-10-03T03:45:55.548Z,21.00
2018-10-03T03:46:55.570Z,19.20
2018-10-03T03:47:55.575Z,20.00
2018-10-03T03:48:55.589Z,19.60
2018-10-03T03:49:55.617Z,20.10
2018-10-03T03:50:55.615Z,22.60
2018-10-03T03:51:55.629Z,27.40
2018-10-03T03:52:55.644Z,21.60
2018-10-03T03:53:55.655Z,24.40
2018-10-03T03:54:55.669Z,20.40
2018-10-03T03:55:55.691Z,23.30
2018-10-03T03:56:55.733Z,20.00
2018-10-03T03:57:55.709Z,22.30
2018-10-03T03:58:55.724Z,19.90
2018-10-03T03:59:55.741Z,19.90
2018-10-03T04:00:55.758Z,18.50
2018-10-03T04:01:55.763Z,21.10
2018-10-03T04:02:55.777Z,17.90
2018-10-03T04:03:55.890Z,26.90
2018-10-03T04:04:56.005Z,26.20
2018-10-03T04:06:56.294Z,22.40
2018-10-03T04:07:55.859Z,18.80
2018-10-03T04:08:55.858Z,22.40
2018-10-03T04:09:55.869Z,21.10
2018-10-03T04:10:55.888Z,22.00
2018-10-03T04:11:55.896Z,20.30
2018-10-03T04:12:55.913Z,19.00
2018-10-03T04:13:55.922Z,19.00
2018-10-03T04:14:55.938Z,14.80
2018-10-03T04:15:55.953Z,21.30
2018-10-03T04:16:55.963Z,19.60
2018-10-03T04:17:55.979Z,18.10
2018-10-03T04:18:55.991Z,25.20
2018-10-03T04:19:56.003Z,18.70
2018-10-03T04:20:56.027Z,23.20
2018-10-03T04:21:56.033Z,22.40
2018-10-03T04:22:56.045Z,19.20
2018-10-03T04:23:56.068Z,20.40
2018-10-03T04:24:56.074Z,25.90
2018-10-03T04:25:56.095Z,21.80
2018-10-03T04:26:56.098Z,23.30
2018-10-03T04:27:56.116Z,22.90
2018-10-03T04:28:56.124Z,22.90
2018-10-03T04:29:56.137Z,21.40
2018-10-03T04:30:56.150Z,22.80
2018-10-03T04:31:56.164Z,20.20
2018-10-03T04:32:56.175Z,23.10
2018-10-03T04:33:56.190Z,19.60
2018-10-03T04:34:56.204Z,23.00
2018-10-03T04:35:56.227Z,18.80
2018-10-03T04:36:56.229Z,17.00
2018-10-03T04:37:56.250Z,21.00
2018-10-03T04:40:56.314Z,26.50
2018-10-03T04:41:56.729Z,19.00
2018-10-03T04:42:56.314Z,20.60
2018-10-03T04:43:56.327Z,19.30
2018-10-03T04:44:56.340Z,19.60
2018-10-03T04:45:56.350Z,20.80
2018-10-03T04:46:56.362Z,20.90
2018-10-03T04:47:56.381Z,17.60
2018-10-03T04:48:56.406Z,20.80
2018-10-03T04:49:56.401Z,17.00
2018-10-03T04:50:56.417Z,18.40
2018-10-03T04:51:56.429Z,18.50
2018-10-03T04:52:56.443Z,20.80
2018-10-03T04:53:56.455Z,21.90
2018-10-03T04:54:56.469Z,19.10
2018-10-03T04:55:56.483Z,20.90
2018-10-03T04:56:56.494Z,17.50
2018-10-03T04:57:56.510Z,18.80
2018-10-03T04:58:56.523Z,27.20
2018-10-03T04:59:56.536Z,25.60
2018-10-03T05:00:56.561Z,21.80
2018-10-03T05:01:56.565Z,23.90
2018-10-03T05:02:56.575Z,19.70
2018-10-03T05:03:56.592Z,18.30
2018-10-03T05:04:56.601Z,17.40
2018-10-03T05:05:56.614Z,22.60
2018-10-03T05:06:56.639Z,20.00
2018-10-03T05:07:56.640Z,21.20
2018-10-03T05:08:56.656Z,21.70
2018-10-03T05:09:56.669Z,17.10
2018-10-03T05:10:56.681Z,18.30
2018-10-03T05:12:56.760Z,17.90
2018-10-03T05:13:56.721Z,23.50
2018-10-03T05:14:56.748Z,19.30
2018-10-03T05:15:56.748Z,22.90
2018-10-03T05:16:56.759Z,23.50
2018-10-03T05:17:56.774Z,23.90
2018-10-03T05:18:56.789Z,22.20
2018-10-03T05:19:56.801Z,19.90
2018-10-03T05:20:56.812Z,25.40
2018-10-03T05:21:56.830Z,23.20
2018-10-03T05:22:56.841Z,21.30
2018-10-03T05:23:56.856Z,21.20
2018-10-03T05:24:56.864Z,19.40
2018-10-03T05:25:56.884Z,23.70
2018-10-03T05:26:56.892Z,24.20
2018-10-03T05:27:56.987Z,21.30
2018-10-03T05:28:56.919Z,24.20
2018-10-03T05:29:56.935Z,22.40
2018-10-03T05:30:56.945Z,23.20
2018-10-03T05:31:56.963Z,21.30
2018-10-03T05:32:56.976Z,20.20
2018-10-03T05:33:56.991Z,24.60
2018-10-03T05:34:57.003Z,22.60
2018-10-03T05:35:57.014Z,19.90
2018-10-03T05:36:57.027Z,23.30
2018-10-03T05:37:57.039Z,21.70
2018-10-03T05:38:57.061Z,18.10
2018-10-03T05:39:57.067Z,24.50
2018-10-03T05:40:57.088Z,20.40
2018-10-03T05:43:57.187Z,18.70
2018-10-03T05:44:57.135Z,18.30
2018-10-03T05:45:57.151Z,19.50
2018-10-03T05:46:57.161Z,22.90
2018-10-03T05:47:57.178Z,19.60
2018-10-03T05:48:57.189Z,21.60
2018-10-03T05:49:57.199Z,22.80
2018-10-03T05:50:57.210Z,21.30
2018-10-03T05:51:57.225Z,25.60
2018-10-03T05:52:57.237Z,20.10
2018-10-03T05:53:57.250Z,17.50
2018-10-03T05:54:57.264Z,21.20
2018-10-03T05:55:57.278Z,20.20
2018-10-03T05:56:57.291Z,21.90
2018-10-03T05:57:57.306Z,19.50
2018-10-03T05:58:57.322Z,21.20
2018-10-03T05:59:57.330Z,22.60
2018-10-03T06:00:57.344Z,18.20
2018-10-03T06:01:57.359Z,21.60
2018-10-03T06:02:57.446Z,17.50
2018-10-03T06:03:57.384Z,23.10
2018-10-03T06:04:57.397Z,21.40
2018-10-03T06:05:57.410Z,16.50
2018-10-03T06:06:57.423Z,20.90
2018-10-03T06:07:57.436Z,21.60
2018-10-03T06:08:57.450Z,15.90
2018-10-03T06:09:57.466Z,18.60
2018-10-03T06:10:57.479Z,20.50
2018-10-03T06:11:57.518Z,19.40
2018-10-03T06:12:57.501Z,23.10
2018-10-03T06:13:57.516Z,19.20
2018-10-03T06:15:57.556Z,21.70
2018-10-03T06:16:57.578Z,19.40
2018-10-03T06:17:57.568Z,19.70
2018-10-03T06:18:57.585Z,21.40
2018-10-03T06:19:57.604Z,19.70
2018-10-03T06:20:57.615Z,19.80
2018-10-03T06:21:57.626Z,20.90
2018-10-03T06:22:57.653Z,20.50
2018-10-03T06:23:57.651Z,20.80
2018-10-03T06:24:57.674Z,20.60
2018-10-03T06:25:57.676Z,18.30
2018-10-03T06:26:57.688Z,20.40
2018-10-03T06:27:57.814Z,20.00
2018-10-03T06:28:57.715Z,17.50
2018-10-03T06:29:57.732Z,18.50
2018-10-03T06:30:57.761Z,17.20
2018-10-03T06:31:57.766Z,17.30
2018-10-03T06:32:57.771Z,20.30
2018-10-03T06:33:57.783Z,24.70
2018-10-03T06:34:57.798Z,18.20
2018-10-03T06:35:57.810Z,20.00
2018-10-03T06:36:57.824Z,19.70
2018-10-03T06:37:57.834Z,20.70
2018-10-03T06:38:57.852Z,19.30
2018-10-03T06:39:57.865Z,18.40
2018-10-03T06:40:57.882Z,19.00
2018-10-03T06:41:57.967Z,22.50
2018-10-03T06:42:57.904Z,16.30
2018-10-03T06:43:57.918Z,21.30
2018-10-03T06:44:57.928Z,16.10
2018-10-03T06:45:57.948Z,23.10
2018-10-03T06:46:57.984Z,19.80
2018-10-03T06:47:57.975Z,16.90
2018-10-03T06:48:57.985Z,17.90
2018-10-03T06:49:58.046Z,17.20
2018-10-03T06:50:58.024Z,19.90
2018-10-03T06:51:58.174Z,15.40
2018-10-03T06:52:58.037Z,20.10
2018-10-03T06:53:58.051Z,21.40
2018-10-03T06:54:58.063Z,18.90
2018-10-03T06:55:58.078Z,16.50
2018-10-03T06:56:58.146Z,19.80
2018-10-03T06:57:58.116Z,17.50
2018-10-03T06:58:58.118Z,19.60
2018-10-03T06:59:58.132Z,15.70
2018-10-03T07:00:58.146Z,25.00
2018-10-03T07:01:58.158Z,17.90
2018-10-03T07:02:58.169Z,19.40
2018-10-03T07:03:58.184Z,17.50
2018-10-03T07:04:58.199Z,18.80
2018-10-03T07:05:58.211Z,17.70
2018-10-03T07:06:58.227Z,18.70
2018-10-03T07:07:58.240Z,18.40
2018-10-03T07:08:58.263Z,16.60
2018-10-03T07:09:58.278Z,19.40
2018-10-03T07:10:58.279Z,18.30
2018-10-03T07:11:58.319Z,20.50
2018-10-03T07:12:58.328Z,20.00
2018-10-03T07:13:58.325Z,21.40
2018-10-03T07:14:58.335Z,16.30
2018-10-03T07:15:58.350Z,18.50
2018-10-03T07:16:58.360Z,21.50
2018-10-03T07:17:58.374Z,18.40
2018-10-03T07:18:58.389Z,17.50
2018-10-03T07:19:58.403Z,15.90
2018-10-03T07:20:58.414Z,18.20
2018-10-03T07:21:58.532Z,20.20
2018-10-03T07:22:58.492Z,18.50
2018-10-03T07:23:58.829Z,16.60
2018-10-03T07:24:58.468Z,21.30
2018-10-03T07:25:58.549Z,20.30
2018-10-03T07:26:58.501Z,14.10
2018-10-03T07:27:58.512Z,16.00
2018-10-03T07:28:58.523Z,18.90
2018-10-03T07:29:58.536Z,17.90
2018-10-03T07:30:58.554Z,17.60
2018-10-03T07:31:58.577Z,18.50
2018-10-03T07:32:58.577Z,15.00
2018-10-03T07:33:58.597Z,21.20
2018-10-03T07:34:58.608Z,20.50
2018-10-03T07:35:58.620Z,16.00
2018-10-03T07:36:58.633Z,17.80
2018-10-03T07:38:58.662Z,18.40
2018-10-03T07:39:59.132Z,18.20
2018-10-03T07:40:58.691Z,18.10
2018-10-03T07:41:58.704Z,16.20
2018-10-03T07:42:58.716Z,15.80
2018-10-03T07:43:58.771Z,17.30
2018-10-03T07:44:58.744Z,19.20
2018-10-03T07:45:58.763Z,15.70
2018-10-03T07:46:58.777Z,17.70
2018-10-03T07:47:58.832Z,17.30
2018-10-03T07:48:58.830Z,17.50
2018-10-03T07:49:58.817Z,16.70
2018-10-03T07:50:58.828Z,15.00
2018-10-03T07:51:58.841Z,16.40
2018-10-03T07:52:58.857Z,15.90
2018-10-03T07:53:58.877Z,18.00
2018-10-03T07:54:58.981Z,20.50
2018-10-03T07:55:59.141Z,20.40
2018-10-03T07:56:58.911Z,16.10
2018-10-03T07:57:58.938Z,21.10
2018-10-03T07:58:59.022Z,15.40
2018-10-03T07:59:58.972Z,20.90
2018-10-03T08:00:59.063Z,19.30
2018-10-03T08:01:58.977Z,19.30
2018-10-03T08:02:58.992Z,18.40
2018-10-03T08:03:59.019Z,14.90
2018-10-03T08:04:59.036Z,16.20
2018-10-03T08:05:59.037Z,21.10
2018-10-03T08:06:59.053Z,17.20
2018-10-03T08:07:59.078Z,18.80
2018-10-03T08:08:59.104Z,17.10
2018-10-03T08:09:59.122Z,18.30
2018-10-03T08:10:59.108Z,18.30
2018-10-03T08:11:59.117Z,19.50
2018-10-03T08:12:59.131Z,14.00
2018-10-03T08:13:59.148Z,16.90
2018-10-03T08:14:59.162Z,17.80
2018-10-03T08:15:59.189Z,20.10
2018-10-03T08:16:59.187Z,19.10
2018-10-03T08:17:59.201Z,13.50
2018-10-03T08:18:59.215Z,15.60
2018-10-03T08:19:59.250Z,15.60
2018-10-03T08:20:59.268Z,15.80
2018-10-03T08:21:59.256Z,20.50
2018-10-03T08:22:59.332Z,13.00
2018-10-03T08:23:59.285Z,20.00
2018-10-03T08:24:59.303Z,14.60
2018-10-03T08:25:59.364Z,21.10
2018-10-03T08:26:59.329Z,13.90
2018-10-03T08:27:59.409Z,15.10
2018-10-03T08:29:59.425Z,16.50
2018-10-03T08:30:59.389Z,13.10
2018-10-03T08:31:59.407Z,20.30
2018-10-03T08:32:59.480Z,13.40
2018-10-03T08:33:59.437Z,15.00
2018-10-03T08:34:59.453Z,15.50
2018-10-03T08:35:59.458Z,18.70
2018-10-03T08:36:59.471Z,15.30
2018-10-03T08:37:59.482Z,15.40
2018-10-03T08:38:59.496Z,16.50
2018-10-03T08:39:59.508Z,16.30
2018-10-03T08:40:59.524Z,17.60
2018-10-03T08:41:59.536Z,13.70
2018-10-03T08:42:59.552Z,16.90
2018-10-03T08:43:59.571Z,16.80
2018-10-03T08:44:59.581Z,15.50
2018-10-03T08:45:59.598Z,16.30
2018-10-03T08:46:59.610Z,15.60
2018-10-03T08:47:59.618Z,15.80
2018-10-03T08:48:59.636Z,14.00
2018-10-03T08:49:59.648Z,15.40
2018-10-03T08:50:59.662Z,13.40
2018-10-03T08:51:59.699Z,13.20
2018-10-03T08:52:59.698Z,14.10
2018-10-03T08:53:59.703Z,16.40
2018-10-03T08:54:59.719Z,14.70
2018-10-03T08:55:59.729Z,12.70
2018-10-03T08:56:59.847Z,12.90
2018-10-03T08:57:59.912Z,11.30
2018-10-03T08:59:00.128Z,14.90
2018-10-03T08:59:59.892Z,13.20
2018-10-03T09:01:00.297Z,17.00
2018-10-03T09:01:59.828Z,12.50
2018-10-03T09:02:59.827Z,14.20
2018-10-03T09:03:59.843Z,13.30
2018-10-03T09:04:59.865Z,18.10
2018-10-03T09:05:59.871Z,13.00
2018-10-03T09:06:59.885Z,12.30
2018-10-03T09:07:59.902Z,14.30
2018-10-03T09:08:59.916Z,15.60
2018-10-03T09:09:59.948Z,13.50
2018-10-03T09:10:59.938Z,15.00
2018-10-03T09:11:59.953Z,13.70
2018-10-03T09:12:59.972Z,13.90
2018-10-03T09:13:59.982Z,14.30
2018-10-03T09:14:59.997Z,13.70
2018-10-03T09:16:00.017Z,16.90
2018-10-03T09:17:00.024Z,13.80
2018-10-03T09:18:00.070Z,13.60
2018-10-03T09:19:00.054Z,11.20
2018-10-03T09:20:00.069Z,14.30
2018-10-03T09:21:00.084Z,13.20
2018-10-03T09:22:00.093Z,15.10
2018-10-03T09:23:00.108Z,14.60
2018-10-03T09:24:00.126Z,14.40
2018-10-03T09:25:00.137Z,13.40
2018-10-03T09:26:00.159Z,10.40
2018-10-03T09:27:00.181Z,15.70
2018-10-03T09:28:00.179Z,13.80
2018-10-03T09:29:00.214Z,14.30
2018-10-03T09:30:00.226Z,14.70
2018-10-03T09:31:00.346Z,14.80
2018-10-03T09:34:00.299Z,13.10
2018-10-03T09:35:00.283Z,12.40
2018-10-03T09:36:00.290Z,15.30
2018-10-03T09:37:00.309Z,13.50
2018-10-03T09:38:00.321Z,10.30
2018-10-03T09:39:00.372Z,9.00
2018-10-03T09:40:00.350Z,14.40
2018-10-03T09:41:00.372Z,13.60
2018-10-03T09:42:00.389Z,12.70
2018-10-03T09:43:00.396Z,15.40
2018-10-03T09:44:00.411Z,15.80
2018-10-03T09:45:00.421Z,16.60
2018-10-03T09:46:00.435Z,16.10
2018-10-03T09:47:00.451Z,12.80
2018-10-03T09:48:00.468Z,13.10
2018-10-03T09:49:00.484Z,14.90
2018-10-03T09:50:00.488Z,12.60
2018-10-03T09:51:00.507Z,13.50
2018-10-03T09:52:00.532Z,13.20
2018-10-03T09:53:00.548Z,13.30
2018-10-03T09:54:00.552Z,13.50
2018-10-03T09:55:00.568Z,14.30
2018-10-03T09:56:00.579Z,14.30
2018-10-03T09:57:00.595Z,10.90
2018-10-03T09:58:00.605Z,12.80
2018-10-03T09:59:00.619Z,13.50
2018-10-03T10:00:00.641Z,11.90
2018-10-03T10:01:00.647Z,12.80
2018-10-03T10:02:00.660Z,9.50
2018-10-03T10:03:00.717Z,10.20
2018-10-03T10:04:00.941Z,9.80
2018-10-03T10:06:00.770Z,9.80
2018-10-03T10:07:00.731Z,12.30
2018-10-03T10:08:00.875Z,11.00
2018-10-03T10:09:00.760Z,12.40
2018-10-03T10:10:00.779Z,11.40
2018-10-03T10:11:00.841Z,12.00
2018-10-03T10:12:00.807Z,14.40
2018-10-03T10:13:00.817Z,13.10
2018-10-03T10:14:00.835Z,11.70
2018-10-03T10:15:00.846Z,14.80
2018-10-03T10:16:00.865Z,13.20
2018-10-03T10:17:00.891Z,14.10
2018-10-03T10:18:00.893Z,18.20
2018-10-03T10:19:00.905Z,12.90
2018-10-03T10:20:00.922Z,13.30
2018-10-03T10:21:00.930Z,11.70
2018-10-03T10:22:00.945Z,12.40
2018-10-03T10:23:00.962Z,12.20
2018-10-03T10:24:00.978Z,9.00
2018-10-03T10:25:00.987Z,11.40
2018-10-03T10:26:01.004Z,13.00
2018-10-03T10:27:01.016Z,12.00
2018-10-03T10:28:01.031Z,13.00
2018-10-03T10:29:01.045Z,13.60
2018-10-03T10:30:01.151Z,11.30
2018-10-03T10:31:01.075Z,14.10
2018-10-03T10:32:01.148Z,9.90
2018-10-03T10:33:01.260Z,13.80
2018-10-03T10:34:01.130Z,9.90
2018-10-03T10:35:01.136Z,9.50
2018-10-03T10:36:01.172Z,7.90
2018-10-03T10:37:01.166Z,11.00
2018-10-03T10:39:01.370Z,9.50
2018-10-03T10:40:01.265Z,11.20
2018-10-03T10:41:01.253Z,14.20
2018-10-03T10:42:01.231Z,14.50
2018-10-03T10:43:01.251Z,11.30
2018-10-03T10:44:01.266Z,11.40
2018-10-03T10:45:01.281Z,10.80
2018-10-03T10:46:01.302Z,9.30
2018-10-03T10:47:01.306Z,11.50
2018-10-03T10:48:01.320Z,11.30
2018-10-03T10:49:01.336Z,11.30
2018-10-03T10:50:01.351Z,8.10
2018-10-03T10:51:01.362Z,11.70
2018-10-03T10:52:01.390Z,8.30
2018-10-03T10:53:01.418Z,11.50
2018-10-03T10:54:01.418Z,10.60
2018-10-03T10:55:01.421Z,11.10
2018-10-03T10:56:01.438Z,13.40
2018-10-03T10:57:01.465Z,9.60
2018-10-03T10:58:01.463Z,11.00
2018-10-03T10:59:01.481Z,8.60
2018-10-03T11:00:01.655Z,8.90
2018-10-03T11:01:01.510Z,8.90
2018-10-03T11:02:01.527Z,8.90
2018-10-03T11:03:01.545Z,9.50
2018-10-03T11:04:01.554Z,12.40
2018-10-03T11:05:01.578Z,11.40
2018-10-03T11:06:01.616Z,8.90
2018-10-03T11:07:01.597Z,10.60
2018-10-03T11:08:01.619Z,7.80
2018-10-03T11:09:01.629Z,8.50
2018-10-03T11:10:01.639Z,13.00
2018-10-03T11:13:02.197Z,10.20
2018-10-03T11:14:01.721Z,9.90
2018-10-03T11:15:01.715Z,9.00
2018-10-03T11:16:01.733Z,10.60
2018-10-03T11:17:01.845Z,10.90
2018-10-03T11:18:01.763Z,9.50
2018-10-03T11:19:01.773Z,8.00
2018-10-03T11:20:01.844Z,10.10
2018-10-03T11:21:01.814Z,8.90
2018-10-03T11:22:01.819Z,12.50
2018-10-03T11:23:01.845Z,9.50
2018-10-03T11:24:01.877Z,10.00
2018-10-03T11:25:01.979Z,9.10
2018-10-03T11:26:01.892Z,10.40
2018-10-03T11:27:01.910Z,9.00
2018-10-03T11:28:01.911Z,11.40
2018-10-03T11:29:01.919Z,8.20
2018-10-03T11:30:01.934Z,11.00
2018-10-03T11:31:01.967Z,9.50
2018-10-03T11:32:02.035Z,9.90
2018-10-03T11:33:01.996Z,12.40
2018-10-03T11:34:02.048Z,12.80
2018-10-03T11:35:02.004Z,9.30
2018-10-03T11:36:02.019Z,7.60
2018-10-03T11:37:02.056Z,9.70
2018-10-03T11:38:02.090Z,10.00
2018-10-03T11:40:02.076Z,10.10
2018-10-03T11:41:02.110Z,11.40
2018-10-03T11:42:02.123Z,12.40
2018-10-03T11:43:02.374Z,8.80
2018-10-03T11:45:02.152Z,8.30
2018-10-03T11:46:02.162Z,9.10
2018-10-03T11:47:02.174Z,9.90
2018-10-03T11:48:02.194Z,9.00
2018-10-03T11:49:02.205Z,9.20
2018-10-03T11:50:02.218Z,9.40
2018-10-03T11:51:02.234Z,9.20
2018-10-03T11:52:02.250Z,7.70
2018-10-03T11:53:02.266Z,10.40
2018-10-03T11:54:02.282Z,9.00
2018-10-03T11:55:02.300Z,8.20
2018-10-03T11:56:02.307Z,10.10
2018-10-03T11:57:02.376Z,8.30
2018-10-03T11:58:02.338Z,8.90
2018-10-03T11:59:02.353Z,8.10
2018-10-03T12:00:02.368Z,7.80
2018-10-03T12:01:02.388Z,10.20
2018-10-03T12:02:02.420Z,9.30
2018-10-03T12:03:02.556Z,9.50
2018-10-03T12:04:02.426Z,7.80
2018-10-03T12:05:02.442Z,8.80
2018-10-03T12:06:02.457Z,8.50
2018-10-03T12:07:02.486Z,9.30
2018-10-03T12:08:02.498Z,7.70
2018-10-03T12:09:02.571Z,10.40
2018-10-03T12:10:02.515Z,10.20
2018-10-03T12:11:02.530Z,6.40
2018-10-03T12:12:02.553Z,10.80
2018-10-03T12:13:02.594Z,12.00
2018-10-03T12:14:02.729Z,8.10
2018-10-03T12:16:02.618Z,13.90
2018-10-03T12:17:02.643Z,10.20
2018-10-03T12:18:02.635Z,8.30
2018-10-03T12:19:02.650Z,10.20
2018-10-03T12:20:02.942Z,11.80
2018-10-03T12:21:02.681Z,6.40
2018-10-03T12:22:02.694Z,9.10
2018-10-03T12:23:02.709Z,7.20
2018-10-03T12:24:02.735Z,10.20
2018-10-03T12:25:02.788Z,5.90
2018-10-03T12:26:02.750Z,7.60
2018-10-03T12:27:02.765Z,6.00
2018-10-03T12:28:02.785Z,7.20
2018-10-03T12:29:02.808Z,6.60
2018-10-03T12:30:02.816Z,7.20
2018-10-03T12:31:02.846Z,6.70
2018-10-03T12:32:02.840Z,7.10
2018-10-03T12:33:02.889Z,6.70
2018-10-03T12:34:02.872Z,6.00
2018-10-03T12:35:02.887Z,7.80
2018-10-03T12:36:02.899Z,7.10
2018-10-03T12:37:02.917Z,7.80
2018-10-03T12:38:02.926Z,7.50
2018-10-03T12:39:02.948Z,7.90
2018-10-03T12:40:02.956Z,5.90
2018-10-03T12:41:02.974Z,8.30
2018-10-03T12:42:02.986Z,9.70
2018-10-03T12:43:02.999Z,10.70
2018-10-03T12:44:03.016Z,8.90
2018-10-03T12:45:03.080Z,7.90
2018-10-03T12:46:03.048Z,7.80
2018-10-03T12:47:03.059Z,6.40
2018-10-03T12:48:03.088Z,6.00
2018-10-03T12:49:03.171Z,9.20
2018-10-03T12:50:03.113Z,7.40
2018-10-03T12:51:03.378Z,8.90
2018-10-03T12:52:03.154Z,5.30
2018-10-03T12:53:03.150Z,8.30
2018-10-03T12:54:03.161Z,9.20
2018-10-03T12:55:03.187Z,6.80
2018-10-03T12:56:03.192Z,7.70
2018-10-03T12:57:03.210Z,9.70
2018-10-03T12:58:03.221Z,8.70
2018-10-03T12:59:03.245Z,8.10
2018-10-03T13:00:03.249Z,8.40
2018-10-03T13:01:03.270Z,7.70
2018-10-03T13:02:03.282Z,6.30
2018-10-03T13:03:03.309Z,10.40
2018-10-03T13:04:03.319Z,7.60
2018-10-03T13:05:03.323Z,9.20
2018-10-03T13:06:03.341Z,7.00
2018-10-03T13:07:03.356Z,7.50
2018-10-03T13:08:03.371Z,8.60
2018-10-03T13:09:03.382Z,8.20
2018-10-03T13:10:03.397Z,8.90
2018-10-03T13:11:03.420Z,8.90
2018-10-03T13:12:03.434Z,8.30
2018-10-03T13:13:03.445Z,7.80
2018-10-03T13:14:03.482Z,8.60
2018-10-03T13:15:03.476Z,9.10
2018-10-03T13:17:03.502Z,10.60
2018-10-03T13:18:03.638Z,8.30
2018-10-03T13:19:03.657Z,8.40
2018-10-03T13:20:03.562Z,7.60
2018-10-03T13:21:03.866Z,7.50
2018-10-03T13:22:03.594Z,7.90
2018-10-03T13:23:04.029Z,7.50
2018-10-03T13:24:03.610Z,7.10
2018-10-03T13:25:03.624Z,9.00
2018-10-03T13:26:03.638Z,8.80